createdAt,value
2022-11-29T00:00:34.819Z,101497.05
2022-11-29T00:01:38.313Z,101496.18
2022-11-29T00:02:40.406Z,101501.42
2022-11-29T00:03:42.868Z,101495.32
2022-11-29T00:04:45.099Z,101497.92
2022-11-29T00:05:47.435Z,101490.92
2022-11-29T00:06:49.416Z,101506.63
2022-11-29T00:07:51.322Z,101502.26
2022-11-29T00:09:01.376Z,101510.09
2022-11-29T00:10:04.012Z,101503.16
2022-11-29T00:11:08.076Z,101500.53
2022-11-29T00:12:10.920Z,101504.86
2022-11-29T00:13:12.833Z,101497.94
2022-11-29T00:14:17.783Z,101499.69
2022-11-29T00:15:19.729Z,101499.64
2022-11-29T00:16:21.783Z,101500.53
2022-11-29T00:17:23.780Z,101501.43
2022-11-29T00:18:25.638Z,101494.48
2022-11-29T00:19:27.736Z,101492.75
2022-11-29T00:20:30.443Z,101495.33
2022-11-29T00:21:32.553Z,101492.75
2022-11-29T00:22:34.450Z,101496.22
2022-11-29T00:23:36.336Z,101497.12
2022-11-29T00:24:38.185Z,101491.03
2022-11-29T00:25:40.053Z,101495.38
2022-11-29T00:26:42.003Z,101494.54
2022-11-29T00:27:43.996Z,101498.86
2022-11-29T00:28:46.206Z,101495.38
2022-11-29T00:29:48.071Z,101492.77
2022-11-29T00:30:50.070Z,101497.98
2022-11-29T00:31:52.356Z,101497.99
2022-11-29T00:32:54.368Z,101491.05
2022-11-29T00:33:57.817Z,101493.64
2022-11-29T00:35:02.017Z,101491.93
2022-11-29T00:36:04.119Z,101494.55
2022-11-29T00:37:06.056Z,101492.77
2022-11-29T00:38:08.044Z,101493.67
2022-11-29T00:39:12.219Z,101496.25
2022-11-29T00:40:14.845Z,101499.70
2022-11-29T00:41:17.152Z,101495.35
2022-11-29T00:42:19.097Z,101487.56
2022-11-29T00:43:20.981Z,101487.53
2022-11-29T00:44:23.108Z,101491.89
2022-11-29T00:45:25.009Z,101493.64
2022-11-29T00:46:27.031Z,101484.08
2022-11-29T00:47:29.034Z,101486.66
2022-11-29T00:48:31.680Z,101495.38
2022-11-29T00:49:33.539Z,101496.27
2022-11-29T00:50:35.492Z,101493.64
2022-11-29T00:51:37.962Z,101492.72
2022-11-29T00:52:39.821Z,101501.46
2022-11-29T00:53:41.802Z,101494.52
2022-11-29T00:54:43.841Z,101495.34
2022-11-29T00:55:53.012Z,101492.75
2022-11-29T00:56:55.525Z,101494.48
2022-11-29T00:57:57.394Z,101495.35
2022-11-29T00:58:59.365Z,101494.52
2022-11-29T01:00:01.252Z,101497.16
2022-11-29T01:01:04.715Z,101494.48
2022-11-29T01:02:06.777Z,101506.67
2022-11-29T01:03:09.237Z,101504.90
2022-11-29T01:04:11.085Z,101503.16
2022-11-29T01:05:12.954Z,101502.33
2022-11-29T01:06:17.378Z,101500.59
2022-11-29T01:07:19.504Z,101506.67
2022-11-29T01:08:21.635Z,101503.19
2022-11-29T01:09:23.784Z,101502.30
2022-11-29T01:10:25.884Z,101495.34
2022-11-29T01:11:27.995Z,101491.88
2022-11-29T01:12:29.867Z,101498.85
2022-11-29T01:13:32.329Z,101494.52
2022-11-29T01:14:34.218Z,101505.78
2022-11-29T01:15:37.333Z,101493.63
2022-11-29T01:16:39.344Z,101497.09
2022-11-29T01:17:41.681Z,101488.38
2022-11-29T01:18:44.063Z,101494.47
2022-11-29T01:19:50.628Z,101493.63
2022-11-29T01:21:04.439Z,101488.41
2022-11-29T01:22:06.351Z,101496.22
2022-11-29T01:23:08.216Z,101489.27
2022-11-29T01:24:10.204Z,101495.36
2022-11-29T01:25:13.278Z,101492.77
2022-11-29T01:26:18.272Z,101490.13
2022-11-29T01:27:20.176Z,101494.52
2022-11-29T01:28:22.915Z,101492.80
2022-11-29T01:29:24.828Z,101496.25
2022-11-29T01:30:27.272Z,101498.89
2022-11-29T01:31:33.125Z,101494.53
2022-11-29T01:32:37.113Z,101497.97
2022-11-29T01:33:39.983Z,101495.38
2022-11-29T01:34:42.215Z,101494.50
2022-11-29T01:35:53.276Z,101493.66
2022-11-29T01:36:56.471Z,101486.74
2022-11-29T01:37:58.459Z,101494.53
2022-11-29T01:39:02.996Z,101496.25
2022-11-29T01:40:06.425Z,101486.64
2022-11-29T01:42:26.269Z,101488.45
2022-11-29T01:43:28.754Z,101490.11
2022-11-29T01:44:34.427Z,101491.03
2022-11-29T01:45:37.885Z,101499.72
2022-11-29T01:46:43.618Z,101495.38
2022-11-29T01:47:47.111Z,101494.53
2022-11-29T01:48:51.699Z,101498.88
2022-11-29T01:49:53.885Z,101504.96
2022-11-29T01:51:00.045Z,101494.55
2022-11-29T01:52:10.697Z,101504.94
2022-11-29T01:53:14.166Z,101497.09
2022-11-29T01:54:16.992Z,101502.28
2022-11-29T01:55:20.138Z,101504.86
2022-11-29T01:56:24.684Z,101503.14
2022-11-29T01:57:27.508Z,101500.53
2022-11-29T01:58:30.389Z,101504.90
2022-11-29T01:59:33.169Z,101508.37
2022-11-29T02:00:35.678Z,101505.75
2022-11-29T02:01:38.012Z,101497.95
2022-11-29T02:03:04.796Z,101500.56
2022-11-29T02:04:08.014Z,101499.69
2022-11-29T02:05:13.573Z,101493.58
2022-11-29T02:06:16.962Z,101504.92
2022-11-29T02:07:18.864Z,101503.16
2022-11-29T02:08:27.773Z,101497.06
2022-11-29T02:09:29.979Z,101500.55
2022-11-29T02:11:06.110Z,101499.69
2022-11-29T02:12:14.492Z,101504.06
2022-11-29T02:13:20.170Z,101501.40
2022-11-29T02:14:44.211Z,101502.22
2022-11-29T02:17:13.288Z,101501.47
2022-11-29T02:18:19.259Z,101503.95
2022-11-29T02:19:50.924Z,101504.80
2022-11-29T02:22:08.421Z,101505.73
2022-11-29T02:23:29.448Z,101504.78
2022-11-29T02:24:55.176Z,101501.33
2022-11-29T02:26:15.478Z,101506.56
2022-11-29T02:27:26.962Z,101496.98
2022-11-29T02:28:36.520Z,101496.14
2022-11-29T02:30:09.073Z,101493.51
2022-11-29T02:31:49.893Z,101492.63
2022-11-29T02:33:07.839Z,101487.39
2022-11-29T02:34:16.406Z,101492.62
2022-11-29T02:35:34.441Z,101497.91
2022-11-29T02:37:06.018Z,101490.06
2022-11-29T02:38:22.484Z,101482.23
2022-11-29T02:39:30.928Z,101485.69
2022-11-29T02:40:39.493Z,101485.66
2022-11-29T02:41:57.372Z,101490.89
2022-11-29T02:43:19.609Z,101486.56
2022-11-29T02:44:51.400Z,101490.87
2022-11-29T02:46:13.337Z,101496.96
2022-11-29T02:47:37.014Z,101496.95
2022-11-29T02:48:54.573Z,101503.89
2022-11-29T02:50:21.268Z,101505.68
2022-11-29T02:51:36.593Z,101506.52
2022-11-29T02:52:54.095Z,101510.86
2022-11-29T02:54:15.244Z,101505.63
2022-11-29T02:55:23.975Z,101507.39
2022-11-29T02:56:36.629Z,101503.88
2022-11-29T02:57:42.298Z,101509.09
2022-11-29T02:59:20.224Z,101509.13
2022-11-29T03:00:23.140Z,101506.52
2022-11-29T03:01:50.248Z,101503.91
2022-11-29T03:02:58.820Z,101510.86
2022-11-29T03:04:19.226Z,101500.42
2022-11-29T03:05:31.144Z,101503.91
2022-11-29T03:06:39.935Z,101509.98
2022-11-29T03:07:54.656Z,101505.67
2022-11-29T03:10:19.608Z,101506.58
2022-11-29T03:11:34.587Z,101500.43
2022-11-29T03:12:45.695Z,101500.39
2022-11-29T03:13:57.192Z,101498.67
2022-11-29T03:15:01.771Z,101506.49
2022-11-29T03:16:10.785Z,101499.56
2022-11-29T03:17:19.290Z,101501.23
2022-11-29T03:18:45.834Z,101504.67
2022-11-29T03:20:28.167Z,101506.45
2022-11-29T03:21:36.913Z,101504.73
2022-11-29T03:23:14.526Z,101499.55
2022-11-29T03:24:26.277Z,101506.44
2022-11-29T03:25:34.683Z,101507.36
2022-11-29T03:27:54.766Z,101509.15
2022-11-29T03:29:03.181Z,101510.77
2022-11-29T03:30:09.192Z,101508.20
2022-11-29T03:31:14.956Z,101510.84
2022-11-29T03:32:32.614Z,101515.15
2022-11-29T03:33:47.509Z,101514.28
2022-11-29T03:35:08.490Z,101511.66
2022-11-29T03:36:17.526Z,101518.62
2022-11-29T03:37:24.361Z,101516.86
2022-11-29T03:38:41.943Z,101519.42
2022-11-29T03:39:53.592Z,101515.92
2022-11-29T03:41:27.042Z,101509.88
2022-11-29T03:42:32.698Z,101518.52
2022-11-29T03:43:50.732Z,101514.18
2022-11-29T03:44:56.437Z,101522.83
2022-11-29T03:46:05.355Z,101515.91
2022-11-29T03:47:11.145Z,101517.61
2022-11-29T03:48:29.829Z,101507.23
2022-11-29T03:49:35.569Z,101520.27
2022-11-29T03:50:41.329Z,101516.80
2022-11-29T03:52:05.518Z,101518.52
2022-11-29T03:53:14.266Z,101520.31
2022-11-29T03:54:29.249Z,101525.44
2022-11-29T03:55:52.091Z,101522.86
2022-11-29T03:56:55.018Z,101534.13
2022-11-29T03:58:22.065Z,101524.64
2022-11-29T03:59:37.527Z,101526.33
2022-11-29T04:00:48.900Z,101526.33
2022-11-29T04:02:11.302Z,101532.37
2022-11-29T04:03:47.597Z,101527.21
2022-11-29T04:05:17.265Z,101522.89
2022-11-29T04:06:32.107Z,101531.54
2022-11-29T04:07:54.759Z,101524.59
2022-11-29T04:09:20.153Z,101536.77
2022-11-29T04:10:56.636Z,101535.89
2022-11-29T04:12:22.433Z,101530.66
2022-11-29T04:13:28.139Z,101536.73
2022-11-29T04:14:34.614Z,101538.45
2022-11-29T04:15:49.357Z,101537.59
2022-11-29T04:17:08.129Z,101545.45
2022-11-29T04:18:19.969Z,101544.55
2022-11-29T04:20:00.692Z,101538.47
2022-11-29T04:21:18.640Z,101535.86
2022-11-29T04:22:27.346Z,101541.91
2022-11-29T04:23:41.369Z,101548.02
2022-11-29T04:25:20.822Z,101545.39
2022-11-29T04:26:39.509Z,101544.50
2022-11-29T04:27:57.950Z,101534.94
2022-11-29T04:29:12.570Z,101534.91
2022-11-29T04:30:24.124Z,101540.12
2022-11-29T04:31:34.104Z,101543.59
2022-11-29T04:32:43.199Z,101545.32
2022-11-29T04:34:07.323Z,101545.33
2022-11-29T04:35:16.068Z,101541.02
2022-11-29T04:36:30.786Z,101527.98
2022-11-29T04:37:56.291Z,101528.92
2022-11-29T04:39:02.076Z,101535.81
2022-11-29T04:40:27.502Z,101544.53
2022-11-29T04:41:42.292Z,101544.47
2022-11-29T04:43:08.923Z,101545.25
2022-11-29T04:44:29.597Z,101550.59
2022-11-29T04:45:58.224Z,101544.47
2022-11-29T04:47:19.281Z,101548.79
2022-11-29T04:48:34.301Z,101547.95
2022-11-29T04:51:08.901Z,101548.05
2022-11-29T04:52:41.602Z,101542.77
2022-11-29T04:53:59.498Z,101544.42
2022-11-29T04:55:26.139Z,101550.45
2022-11-29T04:56:31.790Z,101547.86
2022-11-29T04:57:48.927Z,101547.89
2022-11-29T04:59:27.659Z,101558.31
2022-11-29T05:00:33.498Z,101551.38
2022-11-29T05:01:44.577Z,101550.52
2022-11-29T05:02:52.938Z,101557.50
2022-11-29T05:04:13.147Z,101553.13
2022-11-29T05:05:33.244Z,101560.11
2022-11-29T05:06:56.946Z,101553.01
2022-11-29T05:09:22.802Z,101554.95
2022-11-29T05:10:37.794Z,101554.78
2022-11-29T05:12:05.353Z,101556.52
2022-11-29T05:13:27.658Z,101559.14
2022-11-29T05:15:05.614Z,101551.31
2022-11-29T05:16:23.864Z,101550.45
2022-11-29T05:17:35.534Z,101550.50
2022-11-29T05:18:54.592Z,101553.11
2022-11-29T05:20:30.540Z,101545.30
2022-11-29T05:21:49.551Z,101552.14
2022-11-29T05:23:13.777Z,101553.01
2022-11-29T05:24:40.470Z,101558.25
2022-11-29T05:26:03.053Z,101553.11
2022-11-29T05:27:17.764Z,101560.01
2022-11-29T05:28:38.946Z,101558.25
2022-11-29T05:29:44.827Z,101565.22
2022-11-29T05:31:21.470Z,101559.98
2022-11-29T05:32:33.063Z,101562.66
2022-11-29T05:33:45.704Z,101567.01
2022-11-29T05:34:54.292Z,101568.73
2022-11-29T05:36:03.011Z,101571.38
2022-11-29T05:37:25.147Z,101573.09
2022-11-29T05:38:50.928Z,101576.50
2022-11-29T05:40:14.596Z,101577.43
2022-11-29T05:41:32.076Z,101575.69
2022-11-29T05:42:50.048Z,101586.06
2022-11-29T05:44:14.075Z,101579.09
2022-11-29T05:46:47.836Z,101580.05
2022-11-29T05:47:57.603Z,101580.83
2022-11-29T05:49:29.271Z,101586.84
2022-11-29T05:50:43.961Z,101591.23
2022-11-29T05:52:22.991Z,101590.38
2022-11-29T05:53:40.455Z,101592.08
2022-11-29T05:55:04.292Z,101595.58
2022-11-29T05:56:10.281Z,101596.45
2022-11-29T05:57:43.092Z,101601.66
2022-11-29T05:59:01.367Z,101604.31
2022-11-29T06:00:06.010Z,101605.10
2022-11-29T06:01:20.918Z,101599.06
2022-11-29T06:02:29.751Z,101599.89
2022-11-29T06:03:38.991Z,101592.06
2022-11-29T06:04:53.917Z,101589.48
2022-11-29T06:06:28.769Z,101599.82
2022-11-29T06:07:46.791Z,101600.76
2022-11-29T06:09:01.699Z,101609.45
2022-11-29T06:10:13.283Z,101606.91
2022-11-29T06:11:17.030Z,101611.27
2022-11-29T06:12:22.450Z,101617.28
2022-11-29T11:43:59.845Z,101578.34
2022-11-29T11:45:05.613Z,101577.30
2022-11-29T11:46:08.310Z,101570.38
2022-11-29T11:47:14.326Z,101573.00
2022-11-29T11:48:17.239Z,101574.77
2022-11-29T11:49:25.647Z,101566.16
2022-11-29T11:50:31.507Z,101567.02
2022-11-29T11:51:33.514Z,101567.92
2022-11-29T11:52:46.270Z,101573.13
2022-11-29T11:53:49.824Z,101570.55
2022-11-29T11:54:55.345Z,101570.55
2022-11-29T11:56:08.572Z,101571.41
2022-11-29T11:57:18.343Z,101569.72
2022-11-29T11:58:26.901Z,101569.72
2022-11-29T11:59:30.646Z,101565.42
2022-11-29T12:01:04.055Z,101572.37
2022-11-29T12:01:58.716Z,101566.29
2022-11-29T12:03:02.137Z,101566.29
2022-11-29T12:04:23.292Z,101576.70
2022-11-29T12:05:25.386Z,101563.70
2022-11-29T12:06:48.001Z,101569.81
2022-11-29T12:08:07.922Z,101566.34
2022-11-29T12:10:20.751Z,101559.53
2022-11-29T12:11:25.706Z,101564.59
2022-11-29T12:12:31.381Z,101562.84
2022-11-29T12:13:37.091Z,101567.16
2022-11-29T12:14:51.273Z,101561.08
2022-11-29T12:15:57.180Z,101567.17
2022-11-29T12:17:03.063Z,101564.56
2022-11-29T12:18:17.922Z,101564.56
2022-11-29T12:19:26.897Z,101559.41
2022-11-29T12:20:51.505Z,101559.36
2022-11-29T12:21:57.147Z,101561.08
2022-11-29T12:23:11.839Z,101560.31
2022-11-29T12:24:29.338Z,101553.35
2022-11-29T12:25:47.403Z,101556.80
2022-11-29T12:26:59.057Z,101560.23
2022-11-29T12:27:55.542Z,101561.23
2022-11-29T12:28:58.102Z,101563.84
2022-11-29T12:30:00.262Z,101558.59
2022-11-29T12:31:08.767Z,101560.40
2022-11-29T12:32:44.820Z,101555.13
2022-11-29T12:34:22.068Z,101556.03
2022-11-29T12:35:48.977Z,101560.41
2022-11-29T12:37:00.812Z,101562.08
2022-11-29T12:38:21.651Z,101561.20
2022-11-29T12:39:58.100Z,101562.92
2022-11-29T12:41:21.459Z,101560.34
2022-11-29T12:42:35.757Z,101562.84
2022-11-29T12:43:50.814Z,101566.25
2022-11-29T12:45:04.995Z,101560.23
2022-11-29T12:46:25.311Z,101561.92
2022-11-29T12:47:52.643Z,101559.31
2022-11-29T12:49:10.672Z,101568.93
2022-11-29T12:50:22.192Z,101565.38
2022-11-29T12:51:46.197Z,101567.12
2022-11-29T12:54:11.834Z,101568.97
2022-11-29T12:55:20.814Z,101571.41
2022-11-29T12:56:38.478Z,101567.05
2022-11-29T12:57:59.521Z,101574.89
2022-11-29T12:59:22.191Z,101573.19
2022-11-29T13:00:28.004Z,101575.80
2022-11-29T13:01:42.635Z,101573.17
2022-11-29T13:03:11.352Z,101571.47
2022-11-29T13:04:41.619Z,101580.17
2022-11-29T13:06:11.255Z,101575.86
2022-11-29T13:07:41.299Z,101581.02
2022-11-29T13:09:19.242Z,101580.07
2022-11-29T13:10:36.834Z,101576.58
2022-11-29T13:11:51.890Z,101574.98
2022-11-29T13:13:12.880Z,101575.00
2022-11-29T13:14:42.255Z,101569.77
2022-11-29T13:15:37.591Z,101574.97
2022-11-29T13:16:46.305Z,101570.67
2022-11-29T13:18:04.513Z,101566.33
2022-11-29T13:20:55.435Z,101568.20
2022-11-29T13:22:22.504Z,101567.17
2022-11-29T13:23:39.415Z,101570.67
2022-11-29T13:24:44.319Z,101564.61
2022-11-29T13:25:49.841Z,101564.56
2022-11-29T13:26:53.532Z,101557.72
2022-11-29T13:28:02.080Z,101569.78
2022-11-29T13:29:06.853Z,101571.57
2022-11-29T13:30:14.193Z,101569.77
2022-11-29T13:31:20.286Z,101570.69
2022-11-29T13:32:37.890Z,101569.77
2022-11-29T13:33:54.637Z,101569.80
2022-11-29T13:35:00.296Z,101576.72
2022-11-29T13:36:28.598Z,101578.45
2022-11-29T13:37:37.259Z,101578.44
2022-11-29T13:38:42.926Z,101578.50
2022-11-29T13:40:18.133Z,101580.22
2022-11-29T13:41:36.260Z,101581.12
2022-11-29T13:43:53.033Z,101582.95
2022-11-29T13:45:20.988Z,101586.39
2022-11-29T13:46:43.857Z,101589.77
2022-11-29T13:47:55.156Z,101585.39
2022-11-29T13:48:57.110Z,101580.22
2022-11-29T13:50:04.889Z,101577.58
2022-11-29T13:51:36.745Z,101582.78
2022-11-29T13:52:45.890Z,101582.89
2022-11-29T13:53:49.316Z,101578.58
2022-11-29T13:55:13.729Z,101583.70
2022-11-29T13:56:31.785Z,101588.09
2022-11-29T13:59:02.255Z,101586.41
2022-11-29T14:00:06.897Z,101588.98
2022-11-29T14:01:11.450Z,101588.12
2022-11-29T14:02:31.060Z,101595.09
2022-11-29T18:36:15.255Z,101599.55
2022-11-29T18:37:33.722Z,101604.58
2022-11-29T18:38:21.039Z,101605.37
2022-11-29T18:39:23.059Z,101617.52
2022-11-29T18:40:25.030Z,101613.27
2022-11-29T18:41:28.674Z,101610.71
2022-11-29T18:42:31.395Z,101614.20
2022-11-29T18:43:34.790Z,101612.42
2022-11-29T18:44:36.686Z,101615.06
2022-11-29T18:45:38.593Z,101615.04
2022-11-29T18:46:42.710Z,101611.55
2022-11-29T18:47:46.497Z,101616.03
2022-11-29T18:48:48.402Z,101611.67
2022-11-29T18:49:50.262Z,101609.94
2022-11-29T18:50:52.220Z,101614.30
2022-11-29T18:51:54.318Z,101615.06
2022-11-29T18:52:57.880Z,101614.20
2022-11-29T18:54:00.416Z,101616.84
2022-11-29T18:55:03.223Z,101611.67
2022-11-29T18:56:17.723Z,101615.06
2022-11-29T18:57:19.666Z,101614.20
2022-11-29T18:58:21.586Z,101623.78
2022-11-29T18:59:24.650Z,101602.18
2022-11-29T19:00:26.610Z,101613.45
2022-11-29T19:01:33.038Z,101615.96
2022-11-29T19:02:35.070Z,101606.47
2022-11-29T19:03:40.910Z,101608.23
2022-11-29T19:04:43.056Z,101607.28
2022-11-29T19:05:52.851Z,101603.80
2022-11-29T19:06:54.985Z,101611.67
2022-11-29T19:07:56.930Z,101613.44
2022-11-29T19:09:01.570Z,101607.28
2022-11-29T19:10:05.363Z,101607.33
2022-11-29T19:11:13.043Z,101612.63
2022-11-29T19:12:14.941Z,101613.52
2022-11-29T19:13:16.811Z,101615.14
2022-11-29T19:14:19.276Z,101616.11
2022-11-29T19:15:21.268Z,101609.05
2022-11-29T19:16:24.481Z,101607.36
2022-11-29T19:17:26.834Z,101612.58
2022-11-29T19:18:31.128Z,101608.25
2022-11-29T19:19:33.019Z,101608.23
2022-11-29T19:20:34.979Z,101604.73
2022-11-29T19:21:36.841Z,101613.41
2022-11-29T19:22:38.869Z,101608.20
2022-11-29T19:23:42.385Z,101612.58
2022-11-29T19:24:45.722Z,101609.19
2022-11-29T19:25:47.969Z,101609.05
2022-11-29T19:26:51.995Z,101607.38
2022-11-29T19:27:54.001Z,101610.86
2022-11-29T19:28:56.872Z,101609.07
2022-11-29T19:29:58.759Z,101603.89
2022-11-29T19:31:00.740Z,101614.25
2022-11-29T19:32:02.888Z,101607.23
2022-11-29T19:33:04.751Z,101603.84
2022-11-29T19:34:07.895Z,101606.45
2022-11-29T19:35:09.916Z,101608.16
2022-11-29T19:37:33.644Z,101604.03
2022-11-29T19:38:37.453Z,101603.88
2022-11-29T19:39:39.364Z,101602.94
2022-11-29T19:40:41.367Z,101605.63
2022-11-29T19:41:45.496Z,101606.45
2022-11-29T19:42:49.423Z,101606.56
2022-11-29T19:43:54.727Z,101609.19
2022-11-29T19:45:16.610Z,101602.30
2022-11-29T19:46:10.468Z,101600.55
2022-11-29T19:47:12.514Z,101604.83
2022-11-29T19:48:15.317Z,101602.18
2022-11-29T19:49:17.315Z,101598.64
2022-11-29T19:50:19.487Z,101602.23
2022-11-29T19:51:23.268Z,101605.70
2022-11-29T19:52:25.256Z,101610.86
2022-11-29T19:53:28.455Z,101604.78
2022-11-29T19:54:31.489Z,101603.09
2022-11-29T19:55:43.793Z,101603.98
2022-11-29T19:56:44.340Z,101603.05
2022-11-29T19:57:46.220Z,101606.61
2022-11-29T19:58:48.487Z,101609.19
2022-11-29T19:59:50.390Z,101607.50
2022-11-29T20:00:52.443Z,101609.98
2022-11-29T20:01:54.373Z,101612.48
2022-11-29T20:02:56.452Z,101609.09
2022-11-29T20:03:58.451Z,101605.66
2022-11-29T20:05:00.345Z,101607.38
2022-11-29T20:06:05.764Z,101613.52
2022-11-29T20:07:07.723Z,101609.19
2022-11-29T20:08:09.856Z,101614.27
2022-11-29T20:09:13.919Z,101621.23
2022-11-29T20:10:17.674Z,101619.45
2022-11-29T20:11:22.529Z,101619.45
2022-11-29T20:12:24.540Z,101621.21
2022-11-29T20:13:28.813Z,101617.73
2022-11-29T20:14:32.926Z,101614.25
2022-11-29T20:15:34.880Z,101608.09
2022-11-29T20:16:39.738Z,101613.31
2022-11-29T20:17:43.545Z,101612.48
2022-11-29T20:18:50.924Z,101618.48
2022-11-29T20:19:51.593Z,101617.69
2022-11-29T20:20:53.700Z,101615.05
2022-11-29T20:21:57.492Z,101610.71
2022-11-29T20:22:59.343Z,101615.04
2022-11-29T20:24:04.608Z,101615.05
2022-11-29T20:25:06.996Z,101610.71
2022-11-29T20:27:28.011Z,101612.58
2022-11-29T20:28:29.942Z,101612.51
2022-11-29T20:29:31.809Z,101606.45
2022-11-29T20:30:34.372Z,101607.17
2022-11-29T20:31:43.060Z,101613.38
2022-11-29T20:32:44.438Z,101616.80
2022-11-29T20:33:48.889Z,101619.35
2022-11-29T20:34:51.772Z,101609.86
2022-11-29T20:36:25.980Z,101613.27
2022-11-29T20:37:37.626Z,101616.70
2022-11-29T20:38:50.212Z,101614.05
2022-11-29T20:39:55.911Z,101621.06
2022-11-29T20:41:05.592Z,101617.65
2022-11-29T20:42:45.120Z,101619.40
2022-11-29T20:45:07.550Z,101614.30
2022-11-29T20:46:10.182Z,101628.05
2022-11-29T20:47:16.022Z,101621.09
2022-11-29T20:48:22.322Z,101625.47
2022-11-29T20:49:24.737Z,101623.77
2022-11-29T20:50:29.646Z,101622.84
2022-11-29T20:51:38.354Z,101622.84
2022-11-29T20:52:52.908Z,101633.24
2022-11-29T20:53:54.927Z,101634.95
2022-11-29T20:54:58.214Z,101632.28
2022-11-29T20:56:01.031Z,101628.03
2022-11-29T20:57:03.016Z,101630.64
2022-11-29T20:58:05.649Z,101619.40
2022-11-29T20:59:07.565Z,101618.52
2022-11-29T21:00:11.693Z,101621.21
2022-11-29T21:01:13.684Z,101629.87
2022-11-29T21:02:15.710Z,101621.21
2022-11-29T21:03:18.996Z,101626.36
2022-11-29T21:04:23.563Z,101619.50
2022-11-29T21:05:26.549Z,101621.21
2022-11-29T21:06:28.557Z,101620.29
2022-11-29T21:07:31.137Z,101620.25
2022-11-29T21:08:33.994Z,101615.96
2022-11-29T21:09:35.965Z,101625.49
2022-11-29T21:10:37.954Z,101622.89
2022-11-29T21:11:40.669Z,101619.45
2022-11-29T21:12:44.444Z,101619.50
2022-11-29T21:13:47.097Z,101619.50
2022-11-29T21:14:50.175Z,101617.78
2022-11-29T21:15:53.939Z,101623.03
2022-11-29T21:16:56.761Z,101616.92
2022-11-29T21:17:59.869Z,101622.19
2022-11-29T21:19:02.704Z,101621.30
2022-11-29T21:20:06.777Z,101615.30
2022-11-29T21:21:15.245Z,101610.96
2022-11-29T21:22:30.171Z,101613.49
2022-11-29T21:23:41.875Z,101611.72
2022-11-29T21:25:04.771Z,101610.88
2022-11-29T21:26:13.353Z,101620.39
2022-11-29T21:27:19.040Z,101615.25
2022-11-29T21:28:24.746Z,101617.83
2022-11-29T21:29:29.377Z,101624.84
2022-11-29T21:30:31.953Z,101615.28
2022-11-29T21:31:34.568Z,101617.86
2022-11-29T21:32:37.598Z,101611.81
2022-11-29T21:33:41.972Z,101613.59
2022-11-29T21:34:46.519Z,101616.19
2022-11-29T21:35:52.573Z,101610.92
2022-11-29T21:36:57.849Z,101620.48
2022-11-29T21:38:01.893Z,101615.25
2022-11-29T21:39:05.644Z,101611.79
2022-11-29T21:40:08.986Z,101613.50
2022-11-29T21:41:10.880Z,101610.92
2022-11-29T21:42:12.785Z,101610.96
2022-11-29T21:43:15.544Z,101609.28
2022-11-29T21:44:18.748Z,101612.77
2022-11-29T21:45:20.608Z,101611.05
2022-11-29T21:46:22.750Z,101604.09
2022-11-29T21:47:24.926Z,101604.89
2022-11-29T21:48:27.867Z,101606.72
2022-11-29T21:49:29.768Z,101610.17
2022-11-29T21:50:31.745Z,101613.61
2022-11-29T21:51:33.611Z,101605.71
2022-11-29T21:52:35.641Z,101609.28
2022-11-29T21:53:38.844Z,101600.50
2022-11-29T21:54:40.762Z,101605.71
2022-11-29T21:55:42.606Z,101603.18
2022-11-29T21:56:44.555Z,101603.25
2022-11-29T21:57:46.567Z,101601.43
2022-11-29T21:58:48.432Z,101609.28
